Terminal Aerodrome Forecast
Issued by NWS Central Illinois

Home | Current Version | Previous Version | Text Only | Print | Product List | Glossary On
Versions: 1 2 3 4 5 6 7 8 9 10 11 12 13 14 15 16 17 18 19 20 21
980
FTUS43 KILX 181742
TAFSPI
TAF
KSPI 181742Z 1818/1918 27007KT P6SM SCT250
     FM182000 23008KT P6SM SCT120 BKN250
     FM190200 20005KT P6SM VCTS SCT060CB BKN120
     FM190700 VRB05KT P6SM SCT060
      TEMPO 1909/1912 3SM BR=

USA.gov is the U.S. government's official web portal to all federal, state and local government web resources and services.